Time;durP1;ratioP1;P1;durP2;ratioP2;P2;SDS_P1;SDS_P2;PMS_P1;PMS_P2;Temp;Humidity;BMP_temperature;BMP_pressure;BME280_temperature;BME280_humidity;BME280_pressure;Samples;Min_cycle;Max_cycle;Signal;HPM_P1;HPM_P2
2022/11/15 00:01:10;;;;;;;5.95;2.42;;;;;;;-1.59;100.00;101198.28;1686326;85;20991;-58
2022/11/15 00:03:55;;;;;;;3.87;1.77;;;;;;;-1.59;100.00;101192.31;1687315;85;20896;-57
2022/11/15 00:06:42;;;;;;;6.12;2.08;;;;;;;-1.62;100.00;101192.50;1686550;85;21277;-59
2022/11/15 00:09:28;;;;;;;3.52;1.87;;;;;;;-1.65;100.00;101191.38;1687373;85;21458;-56
2022/11/15 00:12:14;;;;;;;2.62;1.52;;;;;;;-1.65;100.00;101194.76;1686520;85;20932;-56
2022/11/15 00:15:00;;;;;;;4.65;1.60;;;;;;;-1.64;100.00;101202.80;1687283;85;21509;-57
2022/11/15 00:17:50;;;;;;;7.05;1.80;;;;;;;-1.65;100.00;101194.76;1686513;85;21000;-58
2022/11/15 00:20:35;;;;;;;3.87;1.47;;;;;;;-1.67;100.00;101194.45;1687534;85;21856;-56
2022/11/15 00:23:22;;;;;;;3.20;1.45;;;;;;;-1.69;100.00;101193.73;1687214;85;20865;-57
2022/11/15 00:26:11;;;;;;;4.45;1.60;;;;;;;-1.69;100.00;101203.95;1687390;85;20995;-56
2022/11/15 00:28:56;;;;;;;3.83;1.70;;;;;;;-1.71;100.00;101206.12;1687426;85;21157;-58
2022/11/15 00:31:42;;;;;;;4.15;1.75;;;;;;;-1.74;100.00;101213.97;1686989;85;21020;-57
2022/11/15 00:34:28;;;;;;;4.08;1.95;;;;;;;-1.79;100.00;101211.27;1687396;85;21168;-57
2022/11/15 00:37:14;;;;;;;4.65;2.12;;;;;;;-1.81;100.00;101206.25;1687306;85;21043;-62
2022/11/15 00:40:00;;;;;;;4.62;2.02;;;;;;;-1.85;100.00;101203.48;1677917;84;21000;-56
2022/11/15 00:42:48;;;;;;;3.90;2.25;;;;;;;-1.86;100.00;101203.55;1675754;85;21038;-56
2022/11/15 00:45:34;;;;;;;5.28;2.58;;;;;;;-1.88;100.00;101207.92;1670834;84;21082;-56
2022/11/15 00:48:20;;;;;;;5.28;2.60;;;;;;;-1.87;100.00;101210.84;1671167;85;21087;-56
2022/11/15 00:51:06;;;;;;;7.25;3.33;;;;;;;-1.88;100.00;101215.59;1671177;85;21529;-57
2022/11/15 00:53:51;;;;;;;6.67;3.67;;;;;;;-1.92;100.00;101205.98;1670918;84;21063;-57
2022/11/15 00:56:39;;;;;;;6.70;3.10;;;;;;;-2.00;100.00;101209.39;1670823;85;21028;-57
2022/11/15 00:59:25;;;;;;;5.30;2.60;;;;;;;-2.06;100.00;101210.97;1671019;84;21597;-57
2022/11/15 01:02:10;;;;;;;6.55;2.60;;;;;;;-2.12;100.00;101207.44;1670925;85;21161;-56
2022/11/15 01:04:56;;;;;;;6.60;2.85;;;;;;;-2.18;100.00;101208.59;1671028;85;20920;-56
2022/11/15 01:07:41;;;;;;;3.55;2.20;;;;;;;-2.19;100.00;101216.34;1671240;85;20999;-57
2022/11/15 01:10:27;;;;;;;4.03;1.62;;;;;;;-2.25;100.00;101212.35;1670797;85;20963;-57
2022/11/15 01:13:13;;;;;;;5.85;1.98;;;;;;;-2.25;100.00;101214.45;1671059;85;21339;-56
2022/11/15 01:15:59;;;;;;;3.67;1.90;;;;;;;-2.22;100.00;101207.91;1671151;85;21294;-56
2022/11/15 01:18:45;;;;;;;5.03;1.90;;;;;;;-2.21;100.00;101215.94;1671087;85;21546;-57
2022/11/15 01:21:32;;;;;;;4.05;2.20;;;;;;;-2.24;100.00;101215.27;1670767;85;21077;-60
2022/11/15 01:24:18;;;;;;;4.42;2.30;;;;;;;-2.29;100.00;101220.61;1670796;85;21011;-57
2022/11/15 01:27:04;;;;;;;6.90;2.20;;;;;;;-2.35;100.00;101218.81;1670512;85;21039;-62
2022/11/15 01:29:50;;;;;;;4.12;2.00;;;;;;;-2.42;100.00;101221.29;1671084;85;21177;-57
2022/11/15 01:32:37;;;;;;;5.62;2.58;;;;;;;-2.45;100.00;101223.56;1670191;85;20928;-62
2022/11/15 01:35:23;;;;;;;4.08;2.00;;;;;;;-2.52;100.00;101223.48;1671084;85;20989;-56
2022/11/15 01:38:09;;;;;;;4.50;2.42;;;;;;;-2.59;100.00;101220.40;1670330;85;21328;-58
2022/11/15 01:40:55;;;;;;;4.95;2.20;;;;;;;-2.66;100.00;101219.50;1668347;84;21587;-56
2022/11/15 01:43:41;;;;;;;6.30;2.30;;;;;;;-2.76;100.00;101217.41;1699092;84;21229;-63
2022/11/15 01:46:33;;;;;;;8.13;2.52;;;;;;;-2.84;100.00;101218.65;1699457;84;20943;-56
2022/11/15 01:49:21;;;;;;;4.58;2.08;;;;;;;-2.92;100.00;101220.73;1699134;84;21019;-59
2022/11/15 01:52:10;;;;;;;4.92;2.20;;;;;;;-2.97;100.00;101217.14;1699699;84;20999;-56
2022/11/15 01:55:19;;;;;;;8.23;2.80;;;;;;;-3.09;100.00;101210.89;1699361;84;21504;-56
2022/11/15 01:58:05;;;;;;;7.35;2.87;;;;;;;-3.22;100.00;101206.83;1699460;84;21277;-67
2022/11/15 02:00:51;;;;;;;6.40;2.50;;;;;;;-3.35;100.00;101207.00;1699827;84;21037;-56
2022/11/15 02:03:48;;;;;;;5.87;2.42;;;;;;;-3.41;100.00;101213.64;1699386;84;20983;-68
2022/11/15 02:06:34;;;;;;;5.30;2.65;;;;;;;-3.43;100.00;101207.35;1699661;84;21016;-57
2022/11/15 02:09:20;;;;;;;5.53;2.35;;;;;;;-3.40;100.00;101205.12;1699154;84;20939;-57
2022/11/15 02:12:07;;;;;;;5.83;2.55;;;;;;;-3.38;100.00;101199.94;1699739;84;21224;-56
2022/11/15 02:14:54;;;;;;;4.72;2.42;;;;;;;-3.43;100.00;101203.52;1698928;84;20998;-58
2022/11/15 02:18:18;;;;;;;4.95;2.30;;;;;;;-3.47;100.00;101200.73;1699607;84;20951;-57
2022/11/15 02:21:21;;;;;;;4.97;2.12;;;;;;;-3.46;100.00;101202.84;1699616;84;20960;-57
2022/11/15 02:24:22;;;;;;;6.10;2.80;;;;;;;-3.46;100.00;101213.03;1699805;84;21054;-56
2022/11/15 02:27:24;;;;;;;4.55;2.52;;;;;;;-3.51;100.00;101214.52;1699590;84;21143;-56
2022/11/15 02:30:36;;;;;;;6.92;3.17;;;;;;;-3.60;100.00;101216.64;1672555;84;21291;-64
2022/11/15 02:33:44;;;;;;;5.97;2.98;;;;;;;-3.69;100.00;101208.97;1699766;84;20911;-56
2022/11/15 02:37:01;;;;;;;5.72;2.52;;;;;;;-3.76;100.00;101210.95;1699522;84;21081;-55
2022/11/15 02:39:52;;;;;;;6.87;3.22;;;;;;;-3.83;100.00;101210.84;1690921;84;21011;-57
2022/11/15 02:45:56;;;;;;;8.15;3.55;;;;;;;-4.01;100.00;101211.67;1667851;86;21023;-56
2022/11/15 02:48:42;;;;;;;7.22;3.50;;;;;;;-4.05;100.00;101213.94;1668288;86;20996;-58
2022/11/15 02:51:28;;;;;;;6.90;3.33;;;;;;;-4.07;100.00;101201.73;1668012;86;22456;-57
2022/11/15 02:54:24;;;;;;;5.92;3.33;;;;;;;-4.02;100.00;101206.17;1667976;85;20980;-57
2022/11/15 02:57:15;;;;;;;7.55;3.62;;;;;;;-4.03;100.00;101204.53;1668046;86;21832;-57
2022/11/15 03:00:11;;;;;;;7.40;3.27;;;;;;;-4.04;100.00;101210.07;1668147;86;21611;-56
2022/11/15 03:03:36;;;;;;;4.37;2.40;;;;;;;-3.99;100.00;101206.87;1668008;86;21011;-56
2022/11/15 03:06:35;;;;;;;4.53;2.33;;;;;;;-3.94;100.00;101204.11;1667802;86;21032;-58
2022/11/15 03:09:51;;;;;;;5.58;3.00;;;;;;;-3.92;100.00;101199.80;1668097;84;21009;-57
2022/11/15 03:12:42;;;;;;;8.63;3.80;;;;;;;-3.95;100.00;101198.20;1668085;84;21172;-56
2022/11/15 03:15:32;;;;;;;6.28;3.87;;;;;;;-3.97;100.00;101205.09;1668235;86;21485;-60
2022/11/15 03:18:22;;;;;;;10.13;4.17;;;;;;;-3.91;100.00;101214.17;1668071;86;21067;-56
2022/11/15 03:21:08;;;;;;;6.60;3.67;;;;;;;-3.89;100.00;101203.48;1667317;86;20998;-58
2022/11/15 03:23:55;;;;;;;9.95;4.30;;;;;;;-3.88;100.00;101198.77;1667927;86;21031;-56
2022/11/15 03:26:41;;;;;;;6.42;4.03;;;;;;;-3.88;100.00;101197.94;1667569;86;21179;-61
2022/11/15 03:29:32;;;;;;;8.38;4.30;;;;;;;-3.89;100.00;101202.22;1667961;86;21003;-58
2022/11/15 03:32:24;;;;;;;9.38;3.85;;;;;;;-3.89;100.00;101200.94;1667127;84;21469;-58
2022/11/15 03:35:16;;;;;;;7.70;4.03;;;;;;;-3.89;100.00;101202.22;1668038;84;21142;-55
2022/11/15 03:38:26;;;;;;;7.90;4.12;;;;;;;-3.92;100.00;101198.52;1667931;85;21083;-57
2022/11/15 03:41:19;;;;;;;6.60;3.60;;;;;;;-3.96;100.00;101190.64;1686651;84;22248;-56
2022/11/15 03:44:45;;;;;;;11.63;4.62;;;;;;;-3.96;100.00;101199.55;1694179;83;20943;-55
2022/11/15 03:47:42;;;;;;;9.35;4.20;;;;;;;-3.99;100.00;101192.04;1694444;83;21516;-66
2022/11/15 03:50:27;;;;;;;10.43;4.80;;;;;;;-4.03;100.00;101195.16;1694191;84;21501;-56
2022/11/15 03:53:14;;;;;;;8.45;4.47;;;;;;;-4.05;100.00;101196.97;1693848;83;20944;-67
2022/11/15 03:55:59;;;;;;;7.42;4.12;;;;;;;-4.11;100.00;101197.22;1694252;84;21161;-57
2022/11/15 03:58:45;;;;;;;8.25;3.83;;;;;;;-4.14;100.00;101200.34;1693879;83;21083;-69
2022/11/15 04:01:31;;;;;;;9.58;4.17;;;;;;;-4.19;100.00;101203.09;1694438;84;21019;-56
2022/11/15 04:04:17;;;;;;;8.25;3.95;;;;;;;-4.25;100.00;101203.34;1693830;84;21129;-68
2022/11/15 04:07:03;;;;;;;7.92;3.62;;;;;;;-4.30;100.00;101206.08;1694359;84;20955;-56
2022/11/15 04:10:05;;;;;;;6.60;3.12;;;;;;;-4.35;100.00;101213.55;1693850;84;21853;-58
2022/11/15 04:12:50;;;;;;;9.05;3.77;;;;;;;-4.49;100.00;101215.38;1694440;83;20956;-56
2022/11/15 04:15:37;;;;;;;11.08;3.80;;;;;;;-4.69;100.00;101215.75;1694357;84;20948;-59
2022/11/15 04:18:24;;;;;;;9.53;4.05;;;;;;;-4.74;100.00;101216.36;1694600;84;21395;-59
2022/11/15 04:24:13;;;;;;;7.45;4.00;;;;;;;-4.66;100.00;101211.81;1694060;84;21399;-57
2022/11/15 04:26:59;;;;;;;8.60;4.28;;;;;;;-4.60;100.00;101211.17;1694353;84;21016;-58
2022/11/15 04:29:45;;;;;;;8.13;4.12;;;;;;;-4.55;100.00;101216.44;1694207;84;21148;-58
2022/11/15 04:32:30;;;;;;;13.15;3.98;;;;;;;-4.52;100.00;101216.32;1694367;83;21498;-58
2022/11/15 04:35:16;;;;;;;9.75;4.60;;;;;;;-4.53;100.00;101220.21;1694178;84;21206;-58
2022/11/15 04:38:04;;;;;;;6.62;3.80;;;;;;;-4.57;100.00;101219.95;1694368;84;21769;-56
2022/11/15 04:40:52;;;;;;;6.10;3.62;;;;;;;-4.61;100.00;101217.16;1696328;84;21095;-58
2022/11/15 04:43:37;;;;;;;7.50;3.90;;;;;;;-4.62;100.00;101216.33;1699979;83;21055;-57
2022/11/15 04:46:24;;;;;;;10.65;4.00;;;;;;;-4.67;100.00;101224.13;1699834;84;20963;-60
2022/11/15 04:49:09;;;;;;;8.73;4.72;;;;;;;-4.68;100.00;101223.75;1699420;83;20944;-67
2022/11/15 04:51:55;;;;;;;10.28;5.17;;;;;;;-4.62;100.00;101230.74;1699819;83;21072;-58
2022/11/15 04:54:41;;;;;;;12.15;5.90;;;;;;;-4.52;100.00;101230.77;1699453;83;20959;-67
2022/11/15 04:57:27;;;;;;;10.78;5.37;;;;;;;-4.43;100.00;101240.58;1699861;83;21011;-57
2022/11/15 05:00:14;;;;;;;10.30;5.03;;;;;;;-4.33;100.00;101241.02;1699410;84;20987;-68
2022/11/15 05:06:06;;;;;;;11.93;5.72;;;;;;;-4.22;100.00;101235.03;1699593;83;21264;-56
2022/11/15 05:08:51;;;;;;;12.25;6.78;;;;;;;-4.03;100.00;101241.00;1699506;84;20896;-57
2022/11/15 05:11:37;;;;;;;10.38;5.90;;;;;;;-3.55;100.00;101237.22;1699767;84;21568;-56
2022/11/15 05:14:22;;;;;;;14.68;8.20;;;;;;;-2.81;100.00;101242.74;1699607;83;21019;-58
2022/11/15 05:17:08;;;;;;;14.68;7.25;;;;;;;-1.97;100.00;101240.72;1699919;83;21557;-60
2022/11/15 05:19:54;;;;;;;12.73;6.80;;;;;;;-1.07;100.00;101242.77;1699751;84;22369;-56
2022/11/15 05:22:39;;;;;;;11.43;6.55;;;;;;;-0.10;100.00;101231.72;1699567;84;20976;-57
2022/11/15 05:25:26;;;;;;;13.25;6.78;;;;;;;0.94;100.00;101234.79;1699604;83;20939;-59
2022/11/15 05:28:11;;;;;;;10.90;5.97;;;;;;;2.02;100.00;101229.91;1698986;84;20880;-57
2022/11/15 05:31:06;;;;;;;8.78;5.42;;;;;;;3.02;100.00;101236.65;1699731;84;21456;-58
2022/11/15 05:33:53;;;;;;;7.17;4.67;;;;;;;3.70;100.00;101220.47;1699571;84;21868;-58
2022/11/15 05:36:42;;;;;;;13.75;8.68;;;;;;;4.55;100.00;101214.38;1699495;84;20951;-59
2022/11/15 05:39:27;;;;;;;14.93;9.35;;;;;;;5.23;100.00;101214.98;1699939;84;21503;-56
2022/11/15 05:42:14;;;;;;;11.20;7.17;;;;;;;5.88;100.00;101216.94;1699839;84;20987;-57
2022/11/15 05:44:59;;;;;;;9.47;6.20;;;;;;;6.44;100.00;101216.95;1699703;84;21138;-56
2022/11/15 05:47:48;;;;;;;10.17;6.10;;;;;;;6.80;100.00;101222.02;1699880;84;21283;-56
2022/11/15 05:50:34;;;;;;;11.77;6.53;;;;;;;7.23;100.00;101222.91;1699775;84;21449;-57
2022/11/15 05:53:20;;;;;;;13.13;8.57;;;;;;;7.76;100.00;101222.89;1699860;83;21395;-58
2022/11/15 05:56:07;;;;;;;14.17;9.30;;;;;;;8.26;100.00;101222.59;1699714;84;22897;-57
2022/11/15 05:58:54;;;;;;;11.90;7.83;;;;;;;8.60;100.00;101223.31;1700023;84;21699;-57
2022/11/15 06:01:41;;;;;;;11.73;7.83;;;;;;;8.96;100.00;101228.88;1699986;83;21525;-58
2022/11/15 06:04:27;;;;;;;9.40;6.73;;;;;;;9.20;100.00;101226.97;1699480;84;20916;-57
2022/11/15 06:07:13;;;;;;;12.83;7.90;;;;;;;9.42;100.00;101215.27;1699813;84;21125;-60
2022/11/15 06:09:58;;;;;;;9.87;7.80;;;;;;;9.73;98.75;101223.94;1699781;83;21807;-60
2022/11/15 06:12:46;;;;;;;10.70;7.67;;;;;;;10.04;89.69;101220.84;1699586;84;20959;-58
2022/11/15 06:15:34;;;;;;;9.73;8.70;;;;;;;10.28;81.98;101220.99;1699533;84;21867;-61
2022/11/15 06:18:19;;;;;;;9.87;7.20;;;;;;;10.36;73.57;101213.69;1699647;84;21048;-59
2022/11/15 06:21:06;;;;;;;7.80;5.20;;;;;;;10.50;66.27;101209.67;1699226;83;21059;-66
2022/11/15 06:23:52;;;;;;;8.63;6.03;;;;;;;10.46;63.47;101213.08;1699774;84;21493;-59
2022/11/15 06:26:38;;;;;;;10.20;8.47;;;;;;;10.61;63.95;101212.79;1699483;84;21433;-58
2022/11/15 06:29:23;;;;;;;8.90;5.93;;;;;;;10.84;61.76;101205.66;1699674;84;21323;-58
2022/11/15 06:32:09;;;;;;;9.30;6.70;;;;;;;11.03;57.09;101204.04;1698935;84;21005;-60
2022/11/15 06:34:55;;;;;;;9.93;7.20;;;;;;;11.22;57.37;101203.39;1699809;84;21082;-59
2022/11/15 06:37:41;;;;;;;9.87;7.57;;;;;;;11.47;57.37;101198.95;1699174;83;21146;-58
2022/11/15 06:40:27;;;;;;;13.90;8.00;;;;;;;11.69;54.77;101203.48;1699662;83;20967;-58
2022/11/15 06:43:14;;;;;;;10.03;6.23;;;;;;;11.80;52.46;101206.23;1699228;83;21321;-58
2022/11/15 06:46:00;;;;;;;10.77;7.20;;;;;;;12.00;51.64;101202.27;1699761;83;20987;-58
2022/11/15 06:48:46;;;;;;;8.17;6.07;;;;;;;12.28;50.02;101203.16;1699530;84;20970;-58
2022/11/15 06:51:31;;;;;;;11.77;6.77;;;;;;;12.41;48.85;101199.48;1699744;83;20951;-58
2022/11/15 06:54:16;;;;;;;10.97;6.67;;;;;;;12.56;49.68;101204.79;1699381;84;21058;-58
2022/11/15 06:57:04;;;;;;;13.47;6.70;;;;;;;12.75;47.96;101199.11;1699686;84;21354;-58
2022/11/15 06:59:51;;;;;;;10.47;6.97;;;;;;;12.91;46.95;101203.41;1699634;83;21018;-58
2022/11/15 07:02:37;;;;;;;10.07;6.10;;;;;;;12.96;45.47;101201.59;1699526;83;21039;-58
2022/11/15 07:05:23;;;;;;;7.23;5.17;;;;;;;12.89;44.66;101204.09;1699715;83;21089;-59
2022/11/15 07:08:09;;;;;;;7.73;4.53;;;;;;;12.68;44.38;101200.78;1699828;83;21006;-59
2022/11/15 07:10:57;;;;;;;8.77;4.33;;;;;;;12.72;44.69;101200.75;1699666;83;21155;-58
2022/11/15 07:13:43;;;;;;;7.80;5.17;;;;;;;12.94;43.84;101198.33;1699441;83;20935;-59
2022/11/15 07:16:28;;;;;;;7.07;4.27;;;;;;;12.91;43.25;101202.91;1699717;84;21149;-58
2022/11/15 07:19:15;;;;;;;8.10;5.57;;;;;;;12.99;42.79;101211.69;1700060;84;21572;-58
2022/11/15 07:22:00;;;;;;;7.50;5.23;;;;;;;12.97;42.17;101208.45;1700119;84;22020;-58
2022/11/15 07:24:46;;;;;;;7.07;4.67;;;;;;;12.90;41.19;101196.55;1699782;84;21220;-58
2022/11/15 07:27:32;;;;;;;7.17;4.13;;;;;;;12.86;41.39;101203.94;1699764;84;21727;-57
2022/11/15 07:30:18;;;;;;;7.47;3.87;;;;;;;12.76;41.21;101206.45;1699641;83;21020;-58
2022/11/15 07:33:05;;;;;;;6.93;5.00;;;;;;;12.76;41.74;101205.14;1700036;84;21556;-58
2022/11/15 07:35:52;;;;;;;6.30;3.83;;;;;;;12.88;41.10;101195.43;1699549;84;21007;-57
2022/11/15 07:38:37;;;;;;;6.80;4.07;;;;;;;12.90;41.12;101200.47;1699957;84;21162;-57
2022/11/15 07:41:23;;;;;;;6.37;3.43;;;;;;;13.07;41.88;101198.56;1699725;83;21008;-57
2022/11/15 07:44:09;;;;;;;6.03;3.47;;;;;;;13.26;41.13;101190.71;1699983;84;20955;-57
2022/11/15 07:46:54;;;;;;;7.37;4.60;;;;;;;13.30;40.22;101200.68;1699712;84;20919;-64
2022/11/15 07:49:40;;;;;;;7.40;3.90;;;;;;;13.15;39.84;101198.48;1699822;84;20963;-57
2022/11/15 07:52:26;;;;;;;10.13;9.00;;;;;;;13.10;40.17;101194.27;1699326;84;21845;-56
2022/11/15 07:55:12;;;;;;;5.53;3.80;;;;;;;13.16;39.68;101194.88;1700022;83;20853;-56
2022/11/15 07:58:05;;;;;;;6.10;3.63;;;;;;;13.07;38.77;101185.48;1698942;83;21027;-56
2022/11/15 08:00:51;;;;;;;6.60;3.70;;;;;;;12.79;39.59;101187.80;1699931;84;20928;-57
2022/11/15 08:03:37;;;;;;;8.43;4.37;;;;;;;12.76;39.91;101180.30;1699449;83;21537;-58
2022/11/15 08:06:23;;;;;;;8.60;4.97;;;;;;;12.91;39.83;101183.78;1699853;84;21785;-59
2022/11/15 08:09:11;;;;;;;7.87;4.27;;;;;;;12.93;39.49;101191.47;1699201;83;20904;-57
2022/11/15 08:11:56;;;;;;;6.37;4.40;;;;;;;12.94;40.28;101193.09;1699882;84;21002;-58
2022/11/15 08:14:42;;;;;;;8.53;6.93;;;;;;;13.00;38.55;101180.62;1699788;83;20963;-58
2022/11/15 08:17:32;;;;;;;12.50;9.03;;;;;;;12.82;38.36;101180.42;1699910;84;21379;-58
2022/11/15 08:20:17;;;;;;;11.43;8.63;;;;;;;12.56;38.62;101186.48;1699684;83;21721;-59
2022/11/15 08:23:03;;;;;;;10.40;5.50;;;;;;;12.22;39.18;101186.84;1699348;84;20888;-58
2022/11/15 08:25:49;;;;;;;6.43;3.70;;;;;;;11.90;38.78;101180.77;1699591;84;21055;-58
2022/11/15 08:28:35;;;;;;;11.97;7.27;;;;;;;11.52;38.87;101183.13;1699981;84;21437;-58
2022/11/15 08:31:20;;;;;;;10.13;7.57;;;;;;;11.22;38.92;101179.41;1699267;84;20968;-58
2022/11/15 08:34:06;;;;;;;9.73;6.20;;;;;;;10.74;39.15;101169.28;1699717;84;21942;-58
2022/11/15 08:36:53;;;;;;;10.80;6.07;;;;;;;10.20;39.84;101171.43;1699297;84;21046;-64
2022/11/15 08:39:39;;;;;;;9.33;5.23;;;;;;;9.83;41.07;101172.58;1699974;84;21073;-57
2022/11/15 08:42:24;;;;;;;8.20;4.77;;;;;;;9.76;41.48;101162.45;1699304;83;21015;-57
2022/11/15 08:45:10;;;;;;;11.30;6.47;;;;;;;9.86;41.73;101155.34;1699853;84;20920;-57
2022/11/15 08:47:56;;;;;;;11.27;6.77;;;;;;;10.06;41.58;101149.39;1698964;84;21186;-57
2022/11/15 08:50:43;;;;;;;12.27;7.00;;;;;;;10.42;41.63;101151.81;1699826;83;21612;-58
2022/11/15 08:53:29;;;;;;;9.03;5.07;;;;;;;10.76;40.74;101156.92;1699317;84;21023;-57
2022/11/15 08:56:16;;;;;;;9.67;5.40;;;;;;;10.83;39.78;101140.92;1699465;83;21015;-57
2022/11/15 08:59:01;;;;;;;9.60;5.60;;;;;;;10.89;40.16;101143.38;1699451;83;20995;-58
2022/11/15 09:01:47;;;;;;;7.27;4.93;;;;;;;11.12;40.58;101140.92;1699920;83;21296;-57
2022/11/15 09:04:33;;;;;;;9.20;5.17;;;;;;;11.44;39.62;101131.73;1699270;84;20999;-61
2022/11/15 09:07:18;;;;;;;7.63;4.37;;;;;;;11.62;39.47;101124.17;1699877;83;20999;-57
2022/11/15 09:10:07;;;;;;;8.73;4.47;;;;;;;11.74;38.91;101114.16;1699222;84;20967;-58
2022/11/15 09:12:52;;;;;;;7.33;4.20;;;;;;;11.96;39.49;101108.22;1699795;84;20868;-58
2022/11/15 09:15:39;;;;;;;8.47;5.13;;;;;;;12.24;38.93;101105.95;1699165;83;21110;-58
2022/11/15 09:18:27;;;;;;;8.00;4.30;;;;;;;12.33;38.32;101102.79;1699766;84;21016;-59
2022/11/15 09:21:12;;;;;;;7.73;4.77;;;;;;;12.37;38.32;101106.69;1693263;84;21455;-58
2022/11/15 09:23:58;;;;;;;9.07;4.80;;;;;;;12.28;38.17;101101.20;1699850;83;21465;-58
2022/11/15 09:26:45;;;;;;;8.73;4.83;;;;;;;11.95;37.79;101099.26;1699872;84;21145;-61
2022/11/15 09:29:30;;;;;;;8.87;4.47;;;;;;;11.57;38.35;101096.45;1699822;83;22477;-59
2022/11/15 09:32:16;;;;;;;6.93;4.20;;;;;;;11.19;38.63;101101.45;1699664;84;21019;-61
2022/11/15 09:35:02;;;;;;;12.10;7.93;;;;;;;10.88;39.69;101099.53;1699710;84;21058;-59
2022/11/15 09:37:49;;;;;;;10.00;6.00;;;;;;;10.87;39.94;101106.20;1699824;83;21059;-59
2022/11/15 09:40:36;;;;;;;7.80;5.50;;;;;;;11.06;40.65;101099.82;1699869;84;21469;-61
2022/11/15 09:43:39;;;;;;;8.40;5.07;;;;;;;11.27;39.82;101087.07;1693690;84;21268;-61
2022/11/15 09:46:48;;;;;;;10.20;5.30;;;;;;;10.53;40.03;101088.11;1670864;84;20961;-62
2022/11/15 09:49:25;;;;;;;7.87;4.97;;;;;;;10.53;40.03;101153.28;1690864;84;20988;-60
2022/11/15 09:51:57;;;;;;;11.37;5.87;;;;;;;9.83;41.22;101074.92;1690968;84;20943;-59
2022/11/15 09:54:40;;;;;;;8.80;5.17;;;;;;;9.83;41.22;101074.92;1692368;84;21288;-60
2022/11/15 09:57:18;;;;;;;8.70;4.95;;;;;;;9.74;42.06;101072.78;1692453;84;21688;-58
2022/11/15 10:00:24;;;;;;;9.17;4.93;;;;;;;9.96;42.96;101068.80;1692067;84;21456;-60
2022/11/15 10:03:09;;;;;;;9.40;4.80;;;;;;;10.32;42.69;101068.55;1691382;84;21649;-58
2022/11/15 10:05:41;;;;;;;7.93;4.53;;;;;;;10.70;42.18;101060.58;1692227;84;21645;-59
2022/11/15 10:08:49;;;;;;;8.03;4.20;;;;;;;11.07;41.42;101051.41;1691699;84;21790;-60
2022/11/15 10:11:23;;;;;;;8.40;4.77;;;;;;;11.14;40.67;101052.38;1637664;84;21834;-60
2022/11/15 10:13:51;;;;;;;71.43;55.20;;;;;;;11.06;40.24;101048.95;1690954;84;21693;-66
2022/11/15 10:16:50;;;;;;;23.27;18.13;;;;;;;11.01;40.25;101048.14;1692066;84;21820;-60
2022/11/15 10:19:47;;;;;;;9.70;6.17;;;;;;;10.88;40.68;101049.16;1691932;83;21764;-63
2022/11/15 10:22:32;;;;;;;10.83;6.30;;;;;;;10.62;40.20;101047.55;1692173;84;22230;-59
2022/11/15 10:25:05;;;;;;;10.50;6.23;;;;;;;10.26;41.53;101040.52;1691630;84;21727;-58
2022/11/15 10:27:32;;;;;;;11.67;6.10;;;;;;;10.26;41.53;101040.52;1692023;84;21476;-59
2022/11/15 10:29:59;;;;;;;10.40;5.90;;;;;;;10.31;42.02;101036.96;1692133;84;21756;-59
2022/11/15 10:32:27;;;;;;;11.70;6.67;;;;;;;10.48;41.79;101032.55;1692301;84;21662;-59
2022/11/15 10:34:54;;;;;;;13.13;7.53;;;;;;;10.40;41.15;101029.46;1691784;84;21734;-68
2022/11/15 10:37:30;;;;;;;9.60;6.43;;;;;;;10.13;41.51;101030.55;1692312;84;21597;-59
2022/11/15 10:40:18;;;;;;;13.33;8.17;;;;;;;10.01;41.95;101038.36;1692116;84;21716;-59
2022/11/15 10:42:46;;;;;;;11.33;6.90;;;;;;;9.84;42.00;101030.98;1673894;84;21804;-59
2022/11/15 10:45:30;;;;;;;10.40;5.17;;;;;;;9.84;42.00;101040.09;1699622;84;22174;-59
2022/11/15 10:48:20;;;;;;;10.50;5.73;;;;;;;9.75;42.35;101025.44;1699875;83;21769;-57
2022/11/15 10:50:48;;;;;;;9.80;5.67;;;;;;;9.80;42.55;101021.86;1699861;83;22181;-58
2022/11/15 10:53:31;;;;;;;10.37;5.80;;;;;;;9.86;42.96;101019.93;1700050;83;20956;-58
2022/11/15 10:56:06;;;;;;;8.50;5.10;;;;;;;9.82;42.62;101015.20;1699522;84;21970;-64
2022/11/15 10:58:44;;;;;;;11.23;5.40;;;;;;;9.62;42.61;101009.43;1699925;83;22213;-57
2022/11/15 11:01:19;;;;;;;7.40;5.10;;;;;;;9.62;42.61;101009.43;1699665;83;21765;-58
2022/11/15 11:04:07;;;;;;;7.47;5.20;;;;;;;9.11;42.29;100991.19;1699195;84;22054;-62
2022/11/15 11:06:52;;;;;;;9.33;5.00;;;;;;;8.69;43.37;100986.73;1699764;83;21232;-58
2022/11/15 11:09:38;;;;;;;11.30;6.73;;;;;;;8.32;43.62;100981.72;1699409;84;21433;-59
2022/11/15 11:12:11;;;;;;;9.13;5.00;;;;;;;7.98;44.50;100978.99;1699871;84;21209;-59
2022/11/15 11:14:39;;;;;;;10.40;6.50;;;;;;;7.63;45.00;100978.48;1699782;83;21724;-66
2022/11/15 11:17:39;;;;;;;12.57;7.13;;;;;;;7.33;45.98;100967.45;1699560;84;21805;-58
2022/11/15 11:20:38;;;;;;;14.20;7.63;;;;;;;7.00;46.64;100961.03;1699742;84;21292;-58
2022/11/15 11:23:36;;;;;;;12.37;6.10;;;;;;;6.63;47.84;100957.97;1699904;84;21266;-58
2022/11/15 11:26:39;;;;;;;11.03;6.70;;;;;;;6.32;49.12;100950.36;1698980;83;21180;-59
2022/11/15 11:29:26;;;;;;;10.00;6.00;;;;;;;6.12;51.43;100959.59;1656441;84;21308;-57
2022/11/15 11:32:12;;;;;;;14.13;7.53;;;;;;;6.11;54.30;100952.78;1699773;83;21614;-58
2022/11/15 11:34:51;;;;;;;15.50;7.90;;;;;;;6.21;56.00;100944.06;1698507;83;20971;-57
2022/11/15 11:37:32;;;;;;;10.95;6.62;;;;;;;6.30;57.56;100945.81;1655820;83;21221;-58
2022/11/15 11:40:09;;;;;;;12.43;7.60;;;;;;;6.41;59.89;100934.97;1699264;83;21059;-60
2022/11/15 11:42:45;;;;;;;13.68;8.23;;;;;;;6.51;59.83;100932.67;1697945;83;21395;-67
2022/11/15 11:46:00;;;;;;;13.50;8.20;;;;;;;6.57;60.23;100930.02;1692360;84;21163;-58
2022/11/15 11:48:51;;;;;;;14.60;7.20;;;;;;;6.72;60.83;100926.50;1692058;84;21502;-58
2022/11/15 11:51:43;;;;;;;14.17;8.67;;;;;;;6.83;61.17;100918.56;1691843;83;21406;-57
2022/11/15 11:54:47;;;;;;;12.57;7.33;;;;;;;6.90;61.65;100916.22;1692275;84;21222;-58
2022/11/15 11:57:35;;;;;;;11.83;7.77;;;;;;;6.90;60.72;100915.73;1637064;86;21292;-59
2022/11/15 12:00:25;;;;;;;14.40;8.17;;;;;;;6.81;59.46;100913.98;1692407;84;21244;-59
2022/11/15 12:03:13;;;;;;;14.53;8.78;;;;;;;6.77;61.34;100903.56;1693473;83;21151;-57
2022/11/15 12:05:46;;;;;;;15.07;7.63;;;;;;;6.84;60.35;100889.08;1693868;83;21581;-57
2022/11/15 12:08:32;;;;;;;10.23;5.83;;;;;;;6.80;59.50;100890.33;1689729;83;21643;-58
2022/11/15 12:11:11;;;;;;;12.50;6.90;;;;;;;6.78;60.27;100887.89;1688754;83;21383;-61
2022/11/15 12:13:38;;;;;;;11.70;6.30;;;;;;;6.77;60.28;100887.53;1687121;83;21319;-60
2022/11/15 12:16:20;;;;;;;10.37;5.50;;;;;;;6.73;60.63;100882.30;1690047;83;21062;-59
2022/11/15 12:18:50;;;;;;;24.77;12.60;;;;;;;6.68;60.76;100891.48;1682450;82;21449;-60
2022/11/15 12:21:46;;;;;;;19.47;11.40;;;;;;;6.58;61.59;100894.90;1697244;82;21335;-58
2022/11/15 12:24:34;;;;;;;14.73;7.43;;;;;;;6.42;62.41;100894.69;1687197;83;21298;-59
2022/11/15 12:27:21;;;;;;;10.10;6.27;;;;;;;6.27;65.05;100887.83;1689896;83;21273;-60
2022/11/15 12:29:54;;;;;;;17.02;10.60;;;;;;;6.09;65.33;100884.31;1690312;83;21797;-59
2022/11/15 12:32:35;;;;;;;19.57;12.47;;;;;;;5.83;67.60;100885.31;1709040;83;21082;-60
2022/11/15 12:35:05;;;;;;;16.40;9.23;;;;;;;5.58;70.69;100887.50;1686507;83;20994;-69
2022/11/15 12:37:42;;;;;;;20.43;9.65;;;;;;;5.33;74.94;100889.30;1690711;83;21092;-58
2022/11/15 12:40:26;;;;;;;15.30;7.87;;;;;;;5.12;79.26;100890.22;1687059;83;22502;-58
2022/11/15 12:43:18;;;;;;;19.80;11.88;;;;;;;4.94;83.43;100886.62;1683107;82;20986;-58
2022/11/15 12:45:45;;;;;;;23.27;11.43;;;;;;;4.76;87.04;100875.27;1693222;83;20975;-59
2022/11/15 12:48:21;;;;;;;24.60;14.63;;;;;;;4.59;91.25;100874.12;1705958;83;21095;-59
2022/11/15 12:50:58;;;;;;;43.65;23.52;;;;;;;4.45;94.58;100873.97;1690372;83;21496;-58
2022/11/15 12:53:30;;;;;;;59.18;30.23;;;;;;;4.32;97.62;100879.34;1700810;83;21560;-60
2022/11/15 12:56:18;;;;;;;69.00;33.53;;;;;;;4.17;99.75;100881.06;1696636;83;21122;-59
2022/11/15 12:58:57;;;;;;;62.27;29.72;;;;;;;4.03;100.00;100887.37;1715563;83;20920;-59